Pigeon, MI (48755)

7:20 AM EDT on October 25, 2014 (GMT -0400)
Sand Point | Change Station
CLOSE
Current Station
Personal Weather Station
Location: Sand Point, MI
Elevation: 598 ft
Nearby Weather Stations

Elev 598 ft 43.91 °N, 83.38 °W | Updated 29 seconds ago

Overcast
Overcast
49.9 °F
Feels Like 48 °F
N
6.0
Wind Variable Wind from SSW
Gusts 7.0 mph

Today
High -- | Low -- °F
--% Chance of Precip.
Yesterday
High -- | Low -- °F
Precip. -- in
8:00 AM 6:33 PM
Waxing Crescent, 3% visible
Pressure 29.78 in
Visibility 10.0 miles
Clouds Scattered Clouds 4500 ft
Overcast 6000 ft
Windchill 48 °F
Dew Point 48 °F
Humidity 93%
Rainfall 0.00 in
Snow Depth Not available.
UV 0.0 out of 12
Pollen 1.60 out of 12
PM2.5 Moderate
Flu Activity Sporadic
METAR KBAX 251118Z AUTO 23008KT 10SM SCT045 OVC060 10/09 A2978 RMK AO2 T01020093

More Conditions Fewer Conditions

Pressure 29.78 in
Visibility 10.0 miles
Clouds Scattered Clouds 4500 ft
Overcast 6000 ft
Windchill 48 °F
Dew Point 48 °F
Humidity 93%
Rainfall 0.00 in
Snow Depth Not available.
UV 0.0 out of 12
Pollen 1.60 out of 12
PM2.5 Moderate
Flu Activity Sporadic
METAR KBAX 251118Z AUTO 23008KT 10SM SCT045 OVC060 10/09 A2978 RMK AO2 T01020093

More Conditions Fewer Conditions

10-Day Weather Forecast

Almanac

Astronomy

Oct. 25, 2014 Rise Set
Actual Time 8:00 AM EDT 6:33 PM EDT
Civil Twilight 7:30 AM EDT 7:03 PM EDT
Nautical Twilight 6:56 AM EDT 7:36 PM EDT
Astronomical Twilight 6:23 AM EDT 8:09 PM EDT
Moon 9:40 AM EDT 7:52 PM EDT
Length of Visible Light 11h 32m
Length of Day
10h 33m
Tomorrow will be 2m 46s shorter.
Waxing Crescent, 3% of the Moon is Illuminated
Today
Waxing Crescent
Oct 30
First Quarter
Nov 6
Full
Nov 14
Last Quarter
Nov 22
New

Today's Extremes

State Highs State Lows

Community

WunderPhotos

Upload Photos

1,764,810 photos uploaded!

Nearby

Air Quality

  Air Quality AQ Index Pollutant
Yesterday Moderate
PM2.5
Current Moderate
PM2.5
Saturday Good
PM2.5
Sunday Good
PM2.5
Monday Good
PM2.5

Snow Depth

Station Depth Elevation
No new snow has been reported.

Earthquake Activity

City Distance Mag. Time & Date
No recent earthquake activity has been reported nearby.
Minimum magnitude displayed is 2.5.

Coastal Water Temperatures

Place Temperature
Harbor Beach, MI 50.0 °F

Nearby Weather Stations